Buoy 21530

sailwx.info

Track history (hours):
 
Tides and Currents Weather Stations Pressure Air Temp Water Temp Dewpoint Dewpoint Depression Visibility Wind Speed Wind Dir Waves Ship Positions

Drifting buoy 21530

Last reported at 2018-May-26 10:00 UTC. Time now 2018-May-26 13:21 UTC.
Position N 20°05' W 175°35'.

Barometer 1020.4 mb
Water temperature 25.1 ° C

Date/timePositionNaut miles runAvg speedWind from/ knotsBaromVisibWave heightAir tempDewpointWater temp
2018-May-26 10:00N 20°05' W 175°35'0 0.0 1020.4 25.1
2018-May-26 09:00N 20°05' W 175°35'1 0.8 1020.5 25.1
2018-May-26 08:00N 20°05' W 175°35'1 0.6 1020.2 25.1
2018-May-26 07:00N 20°06' W 175°35'1 1.3 1019.6 25.2
2018-May-26 06:00N 20°07' W 175°34'1 0.8 1018.8 25.1
2018-May-26 05:00N 20°07' W 175°33'0 0.0 1018.0 25.2
2018-May-26 04:00N 20°07' W 175°33'2 1.1 1017.4 25.2
2018-May-26 02:00N 20°09' W 175°32'0 0.0 1017.6 25.3
2018-May-26 01:00N 20°09' W 175°32'4 1.3 1018.0 25.2
2018-May-25 22:00N 20°12' W 175°29'1 0.8 1019.5 25.0
2018-May-25 21:00N 20°13' W 175°29'1 1.3 1019.8 25.0
2018-May-25 20:00N 20°14' W 175°28'1 1.2 1019.5 24.9
2018-May-25 19:00N 20°15' W 175°28'1 1.3 1019.3 24.8
2018-May-25 18:00N 20°16' W 175°27'0 0.0 1018.7 24.8
2018-May-25 17:00N 20°16' W 175°27'1 0.6 1018.2 24.8
2018-May-25 16:00N 20°16' W 175°27'1 0.6 1018.2 24.8
2018-May-25 15:00N 20°17' W 175°27'4 3.8 1017.6 24.8
2018-May-25 14:00N 20°20' W 175°25'1 0.2 1017.6 24.8
2018-May-25 08:00N 20°20' W 175°23'1 0.6 1019.1 24.9
2018-May-25 07:00N 20°21' W 175°23'1 1.1 1018.8 25.0
2018-May-25 06:00N 20°21' W 175°22'2 1.7 1018.4 25.0
2018-May-25 05:00N 20°21' W 175°20'0 0.0 1017.8 25.0
2018-May-25 04:00N 20°21' W 175°20'2 1.8 1017.0 25.0
2018-May-25 03:00N 20°22' W 175°19'0 0.0 1016.6 24.9
2018-May-25 02:00N 20°22' W 175°19'4 4.1 1016.7 24.9
2018-May-25 01:00N 20°25' W 175°16'1 0.3 1017.2 24.9
2018-May-24 22:00N 20°25' W 175°15'0 0.0 1018.2 24.8
2018-May-24 21:00N 20°25' W 175°15'1 1.2 1018.4 24.8
2018-May-24 20:00N 20°26' W 175°15'0 0.0 1018.6 24.7
2018-May-24 19:00N 20°26' W 175°15'2 2.1 1018.4 24.7
2018-May-24 18:00N 20°28' W 175°13'1 0.6 1017.7 24.7
2018-May-24 17:00N 20°28' W 175°14'1 0.6 1017.0 24.7
2018-May-24 16:00N 20°28' W 175°14'0 0.0 1016.6 24.7
2018-May-24 15:00N 20°28' W 175°14'3 2.5 1016.2 24.7
2018-May-24 14:00N 20°27' W 175°11'0 0.0 1016.3 24.7
2018-May-24 10:00N 20°27' W 175°11'1 0.6 1017.9 24.8
2018-May-24 09:00N 20°27' W 175°11'0 0.0 1017.8 24.8
2018-May-24 08:00N 20°27' W 175°11'1 1.1 1017.8 24.8
2018-May-24 07:00N 20°27' W 175°10'1 0.6 1017.3 24.8
2018-May-24 06:00N 20°28' W 175°10'1 0.8 1017.1 24.8
2018-May-24 05:00N 20°28' W 175°09'1 0.6 1016.7 24.8
2018-May-24 04:00N 20°28' W 175°08'1 1.3 1016.6 24.8
2018-May-24 03:00N 20°29' W 175°07'0 0.0 1016.6 24.8
2018-May-24 02:00N 20°29' W 175°07'5 1.2 1016.8 24.8
2018-May-23 22:00N 20°32' W 175°03'0 0.0 1018.4 24.7
2018-May-23 20:00N 20°32' W 175°03'1 0.8 1018.4 24.6
2018-May-23 19:00N 20°32' W 175°02'2 1.8 1017.8 24.6
2018-May-23 18:00N 20°32' W 175°04'0 0.0 1017.4 24.6
2018-May-23 17:00N 20°32' W 175°04'2 2.1 1017.2 24.6
2018-May-23 16:00N 20°33' W 175°02'3 2.5 1016.9 24.6
2018-May-23 15:00N 20°34' W 175°00'1 0.1 1016.6 24.6
2018-May-23 09:00N 20°35' W 174°59'1 0.8 1019.0 24.6
2018-May-23 08:00N 20°35' W 174°59'1 0.6 1018.9 24.6
2018-May-23 07:00N 20°36' W 174°59'1 0.8 1018.4 24.7
2018-May-23 06:00N 20°37' W 174°58'1 0.6 1018.0 24.7
2018-May-23 05:00N 20°36' W 174°58'1 1.2 1017.8 24.7
2018-May-23 04:00N 20°37' W 174°58'0 0.0 1016.9 24.8
2018-May-23 03:00N 20°37' W 174°58'0 0.0 1016.8 24.7
2018-May-23 02:00N 20°37' W 174°58'2 0.4 1016.9 24.7
2018-May-22 22:00N 20°38' W 174°56'2 1.6 1018.7 24.5
2018-May-22 21:00N 20°39' W 174°55'0 0.0 1018.8 24.5
2018-May-22 20:00N 20°39' W 174°55'1 0.8 1019.1 24.4
2018-May-22 19:00N 20°40' W 174°55'0 0.0 1018.7 24.4
2018-May-22 18:00N 20°40' W 174°55'2 2.1 1018.1 24.4
2018-May-22 17:00N 20°41' W 174°53'0 0.0 1017.7 24.5
2018-May-22 16:00N 20°41' W 174°53'0 0.0 1017.5 24.5
2018-May-22 15:00N 20°41' W 174°53'5 0.8 1017.3 24.5
2018-May-22 09:00N 20°43' W 174°48'0 0.0 1019.6 24.5
2018-May-22 08:00N 20°43' W 174°48'1 0.8 1019.3 24.6
2018-May-22 07:00N 20°44' W 174°47'1 1.1 1018.8 24.7
2018-May-22 06:00N 20°44' W 174°46'1 1.1 1018.2 24.7
2018-May-22 05:00N 20°44' W 174°45'1 1.1 1017.7 24.7
2018-May-22 04:00N 20°44' W 174°44'8 7.9 1017.5 24.8
2018-May-22 03:00N 20°43' W 174°35'0 0.0 1017.6 24.8
2018-May-22 02:00N 20°43' W 174°35'1 0.3 1017.8 24.8
2018-May-21 21:00N 20°44' W 174°36'1 0.6 1020.3 24.6
2018-May-21 20:00N 20°44' W 174°35'1 0.8 1020.2 24.6
2018-May-21 19:00N 20°45' W 174°35'1 0.6 1019.8 24.5
2018-May-21 18:00N 20°45' W 174°35'1 0.8 1019.6 24.5
2018-May-21 17:00N 20°44' W 174°35'0 0.0 1018.8 24.6
2018-May-21 16:00N 20°44' W 174°35'1 0.8 1018.4 24.6
2018-May-21 15:00N 20°44' W 174°34'0 0.0 1018.2 24.6
2018-May-21 14:00N 20°44' W 174°34'0 0.0 1018.2 24.6
2018-May-21 13:00N 20°44' W 174°34'2 0.8 1018.6 24.7
2018-May-21 10:00N 20°42' W 174°32'1 0.8 1019.7 24.7
2018-May-21 09:00N 20°41' W 174°32'0 0.0 1019.4 24.7
2018-May-21 08:00N 20°41' W 174°32'1 0.8 1018.9 24.7
2018-May-21 07:00N 20°41' W 174°31'0 0.0 1018.4 24.7
2018-May-21 06:00N 20°41' W 174°31'2 1.6 1017.4 24.7
2018-May-21 05:00N 20°40' W 174°30'0 0.0 1016.9 24.7
2018-May-21 04:00N 20°40' W 174°30'0 0.0 1016.9 24.8
2018-May-21 03:00N 20°40' W 174°30'3 1.5 1016.8 24.8
2018-May-21 01:00N 20°38' W 174°27'0 0.0 1017.6 24.8
2018-May-20 22:00N 20°38' W 174°27'1 1.1 1019.0 24.8
2018-May-20 21:00N 20°38' W 174°26'1 0.3 1019.2 24.8
2018-May-20 19:00N 20°38' W 174°25'0 0.0 1018.9 24.8
2018-May-20 18:00N 20°38' W 174°25'2 2.3 1018.2 24.9
2018-May-20 17:00N 20°38' W 174°23'0 0.0 1017.9 24.9
2018-May-20 16:00N 20°38' W 174°23'0 0.0 1017.7 25.0
2018-May-20 15:00N 20°38' W 174°23'0 0.0 1017.7 25.0
2018-May-20 14:00N 20°38' W 174°23'5 0.8 1017.8 25.1
2018-May-20 08:00N 20°38' W 174°17'1 0.8 1018.6 25.3
2018-May-20 07:00N 20°39' W 174°17'1 0.6 1018.2 25.3
2018-May-20 06:00N 20°39' W 174°17'1 1.3 1017.7 25.3
2018-May-20 05:00N 20°38' W 174°16'1 0.6 1017.3 25.4
2018-May-20 04:00N 20°38' W 174°17'0 0.0 1017.2 25.5
2018-May-20 03:00N 20°38' W 174°17'3 1.5 1017.2 25.5
2018-May-20 01:00N 20°36' W 174°15'1 0.3 1017.6 25.6
2018-May-19 22:00N 20°35' W 174°14'0 0.0 1018.6 25.4
2018-May-19 21:00N 20°35' W 174°14'1 1.1 1018.9 25.3
2018-May-19 20:00N 20°35' W 174°13'1 1.3 1018.9 25.3
2018-May-19 19:00N 20°35' W 174°12'0 0.0 1018.7 25.3
2018-May-19 18:00N 20°35' W 174°12'2 0.9 1018.4 25.3
2018-May-19 16:00N 20°35' W 174°10'0 0.0 1017.6 25.3
2018-May-19 15:00N 20°35' W 174°10'0 0.0 1017.4 25.3
2018-May-19 14:00N 20°35' W 174°10'2 1.8 1017.5 25.3
2018-May-19 13:00N 20°36' W 174°08'1 0.1 1017.7 25.3
2018-May-19 09:00N 20°36' W 174°08'0 0.0 1019.5 25.4
2018-May-19 08:00N 20°36' W 174°08'1 0.6 1019.1 25.4
2018-May-19 07:00N 20°36' W 174°07'1 0.6 1018.7 25.4
2018-May-19 06:00N 20°36' W 174°07'1 0.8 1018.0 25.4
2018-May-19 05:00N 20°37' W 174°06'1 0.6 1017.4 25.5
2018-May-19 04:00N 20°37' W 174°05'0 0.0 1017.3 25.6
2018-May-19 03:00N 20°37' W 174°05'0 0.0 1017.2 25.6
2018-May-19 02:00N 20°37' W 174°05'0 0.0 1017.6 25.6
2018-May-19 01:00N 20°37' W 174°05'1 0.3 1017.9 25.5
2018-May-18 22:00N 20°36' W 174°05'2 1.8 1019.2 25.4
2018-May-18 21:00N 20°35' W 174°03'0 0.0 1019.4 25.4
2018-May-18 20:00N 20°35' W 174°03'1 0.6 1019.2 25.4
2018-May-18 19:00N 20°35' W 174°03'1 0.6 1018.9 25.3
2018-May-18 18:00N 20°35' W 174°02'1 1.1 1018.5 25.3
2018-May-18 17:00N 20°35' W 174°01'1 0.6 1018.0 25.3
2018-May-18 16:00N 20°34' W 174°01'1 0.8 1017.9 25.3
2018-May-18 15:00N 20°35' W 174°01'0 0.0 1017.7 25.3
2018-May-18 14:00N 20°35' W 174°01'4 0.8 1017.7 25.4
2018-May-18 09:00N 20°37' W 173°57'1 1.1 1019.1 25.4
2018-May-18 08:00N 20°37' W 173°56'0 0.0 1018.9 25.5
2018-May-18 07:00N 20°37' W 173°56'1 1.3 1018.2 25.5
2018-May-18 06:00N 20°37' W 173°55'1 0.6 1018.0 25.5
2018-May-18 05:00N 20°37' W 173°55'1 1.1 1017.4 25.6
2018-May-18 04:00N 20°37' W 173°54'2 1.8 1017.2 25.6
2018-May-18 03:00N 20°38' W 173°52'0 0.0 1017.1 25.6
2018-May-18 02:00N 20°38' W 173°52'2 2.1 1017.5 25.6
2018-May-18 01:00N 20°40' W 173°51'1 0.2 1018.0 25.6
2018-May-17 22:00N 20°40' W 173°50'0 0.0 1019.2 25.6
2018-May-17 21:00N 20°40' W 173°50'0 0.0 1019.2 25.6
2018-May-17 20:00N 20°40' W 173°50'1 1.3 1019.2 25.6
2018-May-17 19:00N 20°40' W 173°52'2 1.8 1018.8 25.6
2018-May-17 18:00N 20°40' W 173°50'1 0.6 1018.0 25.6
2018-May-17 17:00N 20°40' W 173°49'1 1.3 1017.5 25.6
2018-May-17 16:00N 20°39' W 173°48'0 0.0 1017.0 25.6
2018-May-17 15:00N 20°39' W 173°48'5 5.2 1017.1 25.7
2018-May-17 14:00N 20°40' W 173°43'1 0.2 1017.4 25.7
2018-May-17 09:00N 20°40' W 173°41'1 1.1 1018.1 25.8
2018-May-17 08:00N 20°40' W 173°40'1 0.8 1017.9 25.8
2018-May-17 07:00N 20°41' W 173°40'0 0.0 1017.4 25.8
2018-May-17 06:00N 20°41' W 173°40'2 1.8 1017.0 25.8
2018-May-17 05:00N 20°41' W 173°38'1 0.6 1016.5 25.8
2018-May-17 04:00N 20°41' W 173°38'2 0.9 1015.8 25.9
2018-May-17 02:00N 20°41' W 173°37'4 4.0 1016.2 25.9
2018-May-17 01:00N 20°41' W 173°32'0 0.0 1016.2 25.9
2018-May-16 22:00N 20°41' W 173°32'2 2.2 1017.9 25.8
2018-May-16 21:00N 20°41' W 173°30'0 0.0 1018.1 25.8
2018-May-16 20:00N 20°41' W 173°30'0 0.0 1018.1 25.8
2018-May-16 19:00N 20°41' W 173°30'4 2.1 1017.8 25.8
2018-May-16 17:00N 20°40' W 173°26'1 1.3 1016.8 25.8
2018-May-16 16:00N 20°41' W 173°25'0 0.0 1016.6 25.8
2018-May-16 15:00N 20°41' W 173°25'3 2.8 1016.5 25.8
2018-May-16 14:00N 20°41' W 173°22'   1016.6 25.9
Track history (hours):
 
Tides and Currents Weather Stations Pressure Air Temp Water Temp Dewpoint Dewpoint Depression Visibility Wind Speed Wind Dir Waves Ship Positions

Drifting buoy 21530

Last reported at 2018-May-26 10:00 UTC. Time now 2018-May-26 13:21 UTC.
Position N 20°05' W 175°35'.

Barometer 1020.4 mb
Water temperature 25.1 ° C

Date/timePositionNaut miles runAvg speedWind from/ knotsBaromVisibWave heightAir tempDewpointWater temp
2018-May-26 10:00N 20°05' W 175°35'0 0.0 1020.4 25.1
2018-May-26 09:00N 20°05' W 175°35'1 0.8 1020.5 25.1
2018-May-26 08:00N 20°05' W 175°35'1 0.6 1020.2 25.1
2018-May-26 07:00N 20°06' W 175°35'1 1.3 1019.6 25.2
2018-May-26 06:00N 20°07' W 175°34'1 0.8 1018.8 25.1
2018-May-26 05:00N 20°07' W 175°33'0 0.0 1018.0 25.2
2018-May-26 04:00N 20°07' W 175°33'2 1.1 1017.4 25.2
2018-May-26 02:00N 20°09' W 175°32'0 0.0 1017.6 25.3
2018-May-26 01:00N 20°09' W 175°32'4 1.3 1018.0 25.2
2018-May-25 22:00N 20°12' W 175°29'1 0.8 1019.5 25.0
2018-May-25 21:00N 20°13' W 175°29'1 1.3 1019.8 25.0
2018-May-25 20:00N 20°14' W 175°28'1 1.2 1019.5 24.9
2018-May-25 19:00N 20°15' W 175°28'1 1.3 1019.3 24.8
2018-May-25 18:00N 20°16' W 175°27'0 0.0 1018.7 24.8
2018-May-25 17:00N 20°16' W 175°27'1 0.6 1018.2 24.8
2018-May-25 16:00N 20°16' W 175°27'1 0.6 1018.2 24.8
2018-May-25 15:00N 20°17' W 175°27'4 3.8 1017.6 24.8
2018-May-25 14:00N 20°20' W 175°25'1 0.2 1017.6 24.8
2018-May-25 08:00N 20°20' W 175°23'1 0.6 1019.1 24.9
2018-May-25 07:00N 20°21' W 175°23'1 1.1 1018.8 25.0
2018-May-25 06:00N 20°21' W 175°22'2 1.7 1018.4 25.0
2018-May-25 05:00N 20°21' W 175°20'0 0.0 1017.8 25.0
2018-May-25 04:00N 20°21' W 175°20'2 1.8 1017.0 25.0
2018-May-25 03:00N 20°22' W 175°19'0 0.0 1016.6 24.9
2018-May-25 02:00N 20°22' W 175°19'4 4.1 1016.7 24.9
2018-May-25 01:00N 20°25' W 175°16'1 0.3 1017.2 24.9
2018-May-24 22:00N 20°25' W 175°15'0 0.0 1018.2 24.8
2018-May-24 21:00N 20°25' W 175°15'1 1.2 1018.4 24.8
2018-May-24 20:00N 20°26' W 175°15'0 0.0 1018.6 24.7
2018-May-24 19:00N 20°26' W 175°15'2 2.1 1018.4 24.7
2018-May-24 18:00N 20°28' W 175°13'1 0.6 1017.7 24.7
2018-May-24 17:00N 20°28' W 175°14'1 0.6 1017.0 24.7
2018-May-24 16:00N 20°28' W 175°14'0 0.0 1016.6 24.7
2018-May-24 15:00N 20°28' W 175°14'3 2.5 1016.2 24.7
2018-May-24 14:00N 20°27' W 175°11'0 0.0 1016.3 24.7
2018-May-24 10:00N 20°27' W 175°11'1 0.6 1017.9 24.8
2018-May-24 09:00N 20°27' W 175°11'0 0.0 1017.8 24.8
2018-May-24 08:00N 20°27' W 175°11'1 1.1 1017.8 24.8
2018-May-24 07:00N 20°27' W 175°10'1 0.6 1017.3 24.8
2018-May-24 06:00N 20°28' W 175°10'1 0.8 1017.1 24.8
2018-May-24 05:00N 20°28' W 175°09'1 0.6 1016.7 24.8
2018-May-24 04:00N 20°28' W 175°08'1 1.3 1016.6 24.8
2018-May-24 03:00N 20°29' W 175°07'0 0.0 1016.6 24.8
2018-May-24 02:00N 20°29' W 175°07'5 1.2 1016.8 24.8
2018-May-23 22:00N 20°32' W 175°03'0 0.0 1018.4 24.7
2018-May-23 20:00N 20°32' W 175°03'1 0.8 1018.4 24.6
2018-May-23 19:00N 20°32' W 175°02'2 1.8 1017.8 24.6
2018-May-23 18:00N 20°32' W 175°04'0 0.0 1017.4 24.6
2018-May-23 17:00N 20°32' W 175°04'2 2.1 1017.2 24.6
2018-May-23 16:00N 20°33' W 175°02'3 2.5 1016.9 24.6
2018-May-23 15:00N 20°34' W 175°00'1 0.1 1016.6 24.6
2018-May-23 09:00N 20°35' W 174°59'1 0.8 1019.0 24.6
2018-May-23 08:00N 20°35' W 174°59'1 0.6 1018.9 24.6
2018-May-23 07:00N 20°36' W 174°59'1 0.8 1018.4 24.7
2018-May-23 06:00N 20°37' W 174°58'1 0.6 1018.0 24.7
2018-May-23 05:00N 20°36' W 174°58'1 1.2 1017.8 24.7
2018-May-23 04:00N 20°37' W 174°58'0 0.0 1016.9 24.8
2018-May-23 03:00N 20°37' W 174°58'0 0.0 1016.8 24.7
2018-May-23 02:00N 20°37' W 174°58'2 0.4 1016.9 24.7
2018-May-22 22:00N 20°38' W 174°56'2 1.6 1018.7 24.5
2018-May-22 21:00N 20°39' W 174°55'0 0.0 1018.8 24.5
2018-May-22 20:00N 20°39' W 174°55'1 0.8 1019.1 24.4
2018-May-22 19:00N 20°40' W 174°55'0 0.0 1018.7 24.4
2018-May-22 18:00N 20°40' W 174°55'2 2.1 1018.1 24.4
2018-May-22 17:00N 20°41' W 174°53'0 0.0 1017.7 24.5
2018-May-22 16:00N 20°41' W 174°53'0 0.0 1017.5 24.5
2018-May-22 15:00N 20°41' W 174°53'5 0.8 1017.3 24.5
2018-May-22 09:00N 20°43' W 174°48'0 0.0 1019.6 24.5
2018-May-22 08:00N 20°43' W 174°48'1 0.8 1019.3 24.6
2018-May-22 07:00N 20°44' W 174°47'1 1.1 1018.8 24.7
2018-May-22 06:00N 20°44' W 174°46'1 1.1 1018.2 24.7
2018-May-22 05:00N 20°44' W 174°45'1 1.1 1017.7 24.7
2018-May-22 04:00N 20°44' W 174°44'8 7.9 1017.5 24.8
2018-May-22 03:00N 20°43' W 174°35'0 0.0 1017.6 24.8
2018-May-22 02:00N 20°43' W 174°35'1 0.3 1017.8 24.8
2018-May-21 21:00N 20°44' W 174°36'1 0.6 1020.3 24.6
2018-May-21 20:00N 20°44' W 174°35'1 0.8 1020.2 24.6
2018-May-21 19:00N 20°45' W 174°35'1 0.6 1019.8 24.5
2018-May-21 18:00N 20°45' W 174°35'1 0.8 1019.6 24.5
2018-May-21 17:00N 20°44' W 174°35'0 0.0 1018.8 24.6
2018-May-21 16:00N 20°44' W 174°35'1 0.8 1018.4 24.6
2018-May-21 15:00N 20°44' W 174°34'0 0.0 1018.2 24.6
2018-May-21 14:00N 20°44' W 174°34'0 0.0 1018.2 24.6
2018-May-21 13:00N 20°44' W 174°34'2 0.8 1018.6 24.7
2018-May-21 10:00N 20°42' W 174°32'1 0.8 1019.7 24.7
2018-May-21 09:00N 20°41' W 174°32'0 0.0 1019.4 24.7
2018-May-21 08:00N 20°41' W 174°32'1 0.8 1018.9 24.7
2018-May-21 07:00N 20°41' W 174°31'0 0.0 1018.4 24.7
2018-May-21 06:00N 20°41' W 174°31'2 1.6 1017.4 24.7
2018-May-21 05:00N 20°40' W 174°30'0 0.0 1016.9 24.7
2018-May-21 04:00N 20°40' W 174°30'0 0.0 1016.9 24.8
2018-May-21 03:00N 20°40' W 174°30'3 1.5 1016.8 24.8
2018-May-21 01:00N 20°38' W 174°27'0 0.0 1017.6 24.8
2018-May-20 22:00N 20°38' W 174°27'1 1.1 1019.0 24.8
2018-May-20 21:00N 20°38' W 174°26'1 0.3 1019.2 24.8
2018-May-20 19:00N 20°38' W 174°25'0 0.0 1018.9 24.8
2018-May-20 18:00N 20°38' W 174°25'2 2.3 1018.2 24.9
2018-May-20 17:00N 20°38' W 174°23'0 0.0 1017.9 24.9
2018-May-20 16:00N 20°38' W 174°23'0 0.0 1017.7 25.0
2018-May-20 15:00N 20°38' W 174°23'0 0.0 1017.7 25.0
2018-May-20 14:00N 20°38' W 174°23'5 0.8 1017.8 25.1
2018-May-20 08:00N 20°38' W 174°17'1 0.8 1018.6 25.3
2018-May-20 07:00N 20°39' W 174°17'1 0.6 1018.2 25.3
2018-May-20 06:00N 20°39' W 174°17'1 1.3 1017.7 25.3
2018-May-20 05:00N 20°38' W 174°16'1 0.6 1017.3 25.4
2018-May-20 04:00N 20°38' W 174°17'0 0.0 1017.2 25.5
2018-May-20 03:00N 20°38' W 174°17'3 1.5 1017.2 25.5
2018-May-20 01:00N 20°36' W 174°15'1 0.3 1017.6 25.6
2018-May-19 22:00N 20°35' W 174°14'0 0.0 1018.6 25.4
2018-May-19 21:00N 20°35' W 174°14'1 1.1 1018.9 25.3
2018-May-19 20:00N 20°35' W 174°13'1 1.3 1018.9 25.3
2018-May-19 19:00N 20°35' W 174°12'0 0.0 1018.7 25.3
2018-May-19 18:00N 20°35' W 174°12'2 0.9 1018.4 25.3
2018-May-19 16:00N 20°35' W 174°10'0 0.0 1017.6 25.3
2018-May-19 15:00N 20°35' W 174°10'0 0.0 1017.4 25.3
2018-May-19 14:00N 20°35' W 174°10'2 1.8 1017.5 25.3
2018-May-19 13:00N 20°36' W 174°08'1 0.1 1017.7 25.3
2018-May-19 09:00N 20°36' W 174°08'0 0.0 1019.5 25.4
2018-May-19 08:00N 20°36' W 174°08'1 0.6 1019.1 25.4
2018-May-19 07:00N 20°36' W 174°07'1 0.6 1018.7 25.4
2018-May-19 06:00N 20°36' W 174°07'1 0.8 1018.0 25.4
2018-May-19 05:00N 20°37' W 174°06'1 0.6 1017.4 25.5
2018-May-19 04:00N 20°37' W 174°05'0 0.0 1017.3 25.6
2018-May-19 03:00N 20°37' W 174°05'0 0.0 1017.2 25.6
2018-May-19 02:00N 20°37' W 174°05'0 0.0 1017.6 25.6
2018-May-19 01:00N 20°37' W 174°05'1 0.3 1017.9 25.5
2018-May-18 22:00N 20°36' W 174°05'2 1.8 1019.2 25.4
2018-May-18 21:00N 20°35' W 174°03'0 0.0 1019.4 25.4
2018-May-18 20:00N 20°35' W 174°03'1 0.6 1019.2 25.4
2018-May-18 19:00N 20°35' W 174°03'1 0.6 1018.9 25.3
2018-May-18 18:00N 20°35' W 174°02'1 1.1 1018.5 25.3
2018-May-18 17:00N 20°35' W 174°01'1 0.6 1018.0 25.3
2018-May-18 16:00N 20°34' W 174°01'1 0.8 1017.9 25.3
2018-May-18 15:00N 20°35' W 174°01'0 0.0 1017.7 25.3
2018-May-18 14:00N 20°35' W 174°01'4 0.8 1017.7 25.4
2018-May-18 09:00N 20°37' W 173°57'1 1.1 1019.1 25.4
2018-May-18 08:00N 20°37' W 173°56'0 0.0 1018.9 25.5
2018-May-18 07:00N 20°37' W 173°56'1 1.3 1018.2 25.5
2018-May-18 06:00N 20°37' W 173°55'1 0.6 1018.0 25.5
2018-May-18 05:00N 20°37' W 173°55'1 1.1 1017.4 25.6
2018-May-18 04:00N 20°37' W 173°54'2 1.8 1017.2 25.6
2018-May-18 03:00N 20°38' W 173°52'0 0.0 1017.1 25.6
2018-May-18 02:00N 20°38' W 173°52'2 2.1 1017.5 25.6
2018-May-18 01:00N 20°40' W 173°51'1 0.2 1018.0 25.6
2018-May-17 22:00N 20°40' W 173°50'0 0.0 1019.2 25.6
2018-May-17 21:00N 20°40' W 173°50'0 0.0 1019.2 25.6
2018-May-17 20:00N 20°40' W 173°50'1 1.3 1019.2 25.6
2018-May-17 19:00N 20°40' W 173°52'2 1.8 1018.8 25.6
2018-May-17 18:00N 20°40' W 173°50'1 0.6 1018.0 25.6
2018-May-17 17:00N 20°40' W 173°49'1 1.3 1017.5 25.6
2018-May-17 16:00N 20°39' W 173°48'0 0.0 1017.0 25.6
2018-May-17 15:00N 20°39' W 173°48'5 5.2 1017.1 25.7
2018-May-17 14:00N 20°40' W 173°43'1 0.2 1017.4 25.7
2018-May-17 09:00N 20°40' W 173°41'1 1.1 1018.1 25.8
2018-May-17 08:00N 20°40' W 173°40'1 0.8 1017.9 25.8
2018-May-17 07:00N 20°41' W 173°40'0 0.0 1017.4 25.8
2018-May-17 06:00N 20°41' W 173°40'2 1.8 1017.0 25.8
2018-May-17 05:00N 20°41' W 173°38'1 0.6 1016.5 25.8
2018-May-17 04:00N 20°41' W 173°38'2 0.9 1015.8 25.9
2018-May-17 02:00N 20°41' W 173°37'4 4.0 1016.2 25.9
2018-May-17 01:00N 20°41' W 173°32'0 0.0 1016.2 25.9
2018-May-16 22:00N 20°41' W 173°32'2 2.2 1017.9 25.8
2018-May-16 21:00N 20°41' W 173°30'0 0.0 1018.1 25.8
2018-May-16 20:00N 20°41' W 173°30'0 0.0 1018.1 25.8
2018-May-16 19:00N 20°41' W 173°30'4 2.1 1017.8 25.8
2018-May-16 17:00N 20°40' W 173°26'1 1.3 1016.8 25.8
2018-May-16 16:00N 20°41' W 173°25'0 0.0 1016.6 25.8
2018-May-16 15:00N 20°41' W 173°25'3 2.8 1016.5 25.8
2018-May-16 14:00N 20°41' W 173°22'   1016.6 25.9

Dump ship's entire track history